sensor_id;sensor_type;location;lat;lon;timestamp;P1;durP1;ratioP1;P2;durP2;ratioP2
7444;SDS011;3764;48.126;11.594;2023-02-10T00:01:48;17.42;;;12.60;;
7444;SDS011;3764;48.126;11.594;2023-02-10T00:04:15;17.98;;;12.15;;
7444;SDS011;3764;48.126;11.594;2023-02-10T00:06:42;28.75;;;14.40;;
7444;SDS011;3764;48.126;11.594;2023-02-10T00:09:11;19.52;;;12.10;;
7444;SDS011;3764;48.126;11.594;2023-02-10T00:11:39;17.92;;;11.52;;
7444;SDS011;3764;48.126;11.594;2023-02-10T00:14:24;23.13;;;12.15;;
7444;SDS011;3764;48.126;11.594;2023-02-10T00:16:52;22.38;;;13.15;;
7444;SDS011;3764;48.126;11.594;2023-02-10T00:19:20;21.60;;;12.40;;
7444;SDS011;3764;48.126;11.594;2023-02-10T00:21:49;21.20;;;13.38;;
7444;SDS011;3764;48.126;11.594;2023-02-10T00:24:18;21.63;;;12.20;;
7444;SDS011;3764;48.126;11.594;2023-02-10T00:26:45;21.55;;;12.65;;
7444;SDS011;3764;48.126;11.594;2023-02-10T00:29:12;21.60;;;13.50;;
7444;SDS011;3764;48.126;11.594;2023-02-10T00:31:40;22.08;;;12.45;;
7444;SDS011;3764;48.126;11.594;2023-02-10T00:34:08;21.75;;;11.73;;
7444;SDS011;3764;48.126;11.594;2023-02-10T00:36:37;21.48;;;12.55;;
7444;SDS011;3764;48.126;11.594;2023-02-10T00:39:04;20.48;;;12.70;;
7444;SDS011;3764;48.126;11.594;2023-02-10T00:41:32;22.75;;;14.02;;
7444;SDS011;3764;48.126;11.594;2023-02-10T00:44:01;22.05;;;12.63;;
7444;SDS011;3764;48.126;11.594;2023-02-10T00:46:29;21.85;;;13.82;;
7444;SDS011;3764;48.126;11.594;2023-02-10T00:48:56;26.55;;;12.93;;
7444;SDS011;3764;48.126;11.594;2023-02-10T00:51:23;21.58;;;12.85;;
7444;SDS011;3764;48.126;11.594;2023-02-10T00:53:50;23.95;;;12.95;;
7444;SDS011;3764;48.126;11.594;2023-02-10T00:56:18;22.90;;;12.40;;
7444;SDS011;3764;48.126;11.594;2023-02-10T00:58:47;21.75;;;13.52;;
7444;SDS011;3764;48.126;11.594;2023-02-10T01:01:16;17.25;;;11.25;;
7444;SDS011;3764;48.126;11.594;2023-02-10T01:03:44;20.58;;;12.35;;
7444;SDS011;3764;48.126;11.594;2023-02-10T01:06:12;18.45;;;12.43;;
7444;SDS011;3764;48.126;11.594;2023-02-10T01:08:40;23.58;;;12.80;;
7444;SDS011;3764;48.126;11.594;2023-02-10T01:11:08;20.55;;;13.75;;
7444;SDS011;3764;48.126;11.594;2023-02-10T01:13:37;23.17;;;12.80;;
7444;SDS011;3764;48.126;11.594;2023-02-10T01:16:07;25.08;;;13.32;;
7444;SDS011;3764;48.126;11.594;2023-02-10T01:18:36;17.42;;;11.02;;
7444;SDS011;3764;48.126;11.594;2023-02-10T01:21:07;17.02;;;12.00;;
7444;SDS011;3764;48.126;11.594;2023-02-10T01:23:35;19.05;;;12.68;;
7444;SDS011;3764;48.126;11.594;2023-02-10T01:26:02;20.17;;;13.18;;
7444;SDS011;3764;48.126;11.594;2023-02-10T01:28:30;20.38;;;12.20;;
7444;SDS011;3764;48.126;11.594;2023-02-10T01:30:57;18.95;;;10.95;;
7444;SDS011;3764;48.126;11.594;2023-02-10T01:33:25;19.75;;;11.75;;
7444;SDS011;3764;48.126;11.594;2023-02-10T01:35:52;23.15;;;10.77;;
7444;SDS011;3764;48.126;11.594;2023-02-10T01:38:20;18.50;;;11.70;;
7444;SDS011;3764;48.126;11.594;2023-02-10T01:40:47;20.75;;;12.77;;
7444;SDS011;3764;48.126;11.594;2023-02-10T01:43:15;19.75;;;11.98;;
7444;SDS011;3764;48.126;11.594;2023-02-10T01:45:43;21.27;;;12.13;;
7444;SDS011;3764;48.126;11.594;2023-02-10T01:48:11;19.48;;;11.63;;
7444;SDS011;3764;48.126;11.594;2023-02-10T01:50:41;18.35;;;11.45;;
7444;SDS011;3764;48.126;11.594;2023-02-10T01:53:11;19.42;;;11.95;;
7444;SDS011;3764;48.126;11.594;2023-02-10T01:55:41;22.27;;;12.13;;
7444;SDS011;3764;48.126;11.594;2023-02-10T01:58:12;32.58;;;12.95;;
7444;SDS011;3764;48.126;11.594;2023-02-10T02:00:41;19.25;;;11.43;;
7444;SDS011;3764;48.126;11.594;2023-02-10T02:03:08;21.90;;;11.98;;
7444;SDS011;3764;48.126;11.594;2023-02-10T02:05:36;21.27;;;12.98;;
7444;SDS011;3764;48.126;11.594;2023-02-10T02:08:06;19.27;;;11.75;;
7444;SDS011;3764;48.126;11.594;2023-02-10T02:10:43;18.38;;;11.32;;
7444;SDS011;3764;48.126;11.594;2023-02-10T02:13:27;24.48;;;12.05;;
7444;SDS011;3764;48.126;11.594;2023-02-10T02:16:02;26.48;;;16.33;;
7444;SDS011;3764;48.126;11.594;2023-02-10T02:18:36;20.75;;;12.77;;
7444;SDS011;3764;48.126;11.594;2023-02-10T02:21:18;22.70;;;13.20;;
7444;SDS011;3764;48.126;11.594;2023-02-10T02:24:02;20.23;;;13.20;;
7444;SDS011;3764;48.126;11.594;2023-02-10T02:29:57;22.23;;;12.48;;
7444;SDS011;3764;48.126;11.594;2023-02-10T02:32:51;18.27;;;11.48;;
7444;SDS011;3764;48.126;11.594;2023-02-10T02:35:24;19.67;;;11.00;;
7444;SDS011;3764;48.126;11.594;2023-02-10T02:37:54;17.45;;;10.75;;
7444;SDS011;3764;48.126;11.594;2023-02-10T02:40:21;18.67;;;11.20;;
7444;SDS011;3764;48.126;11.594;2023-02-10T02:42:48;18.08;;;12.32;;
7444;SDS011;3764;48.126;11.594;2023-02-10T02:45:17;17.08;;;10.68;;
7444;SDS011;3764;48.126;11.594;2023-02-10T02:48:03;20.48;;;12.00;;
7444;SDS011;3764;48.126;11.594;2023-02-10T02:50:41;18.15;;;11.02;;
7444;SDS011;3764;48.126;11.594;2023-02-10T02:53:17;23.10;;;12.80;;
7444;SDS011;3764;48.126;11.594;2023-02-10T02:55:51;17.23;;;11.63;;
7444;SDS011;3764;48.126;11.594;2023-02-10T02:58:28;18.95;;;11.90;;
7444;SDS011;3764;48.126;11.594;2023-02-10T03:01:02;17.65;;;10.50;;
7444;SDS011;3764;48.126;11.594;2023-02-10T03:03:35;22.60;;;13.27;;
7444;SDS011;3764;48.126;11.594;2023-02-10T03:06:03;17.73;;;11.20;;
7444;SDS011;3764;48.126;11.594;2023-02-10T03:08:31;19.85;;;11.95;;
7444;SDS011;3764;48.126;11.594;2023-02-10T03:11:00;20.17;;;11.93;;
7444;SDS011;3764;48.126;11.594;2023-02-10T03:13:27;20.83;;;12.75;;
7444;SDS011;3764;48.126;11.594;2023-02-10T03:15:54;20.25;;;11.95;;
7444;SDS011;3764;48.126;11.594;2023-02-10T03:18:23;21.98;;;10.73;;
7444;SDS011;3764;48.126;11.594;2023-02-10T03:20:52;21.67;;;11.63;;
7444;SDS011;3764;48.126;11.594;2023-02-10T03:23:19;20.05;;;11.80;;
7444;SDS011;3764;48.126;11.594;2023-02-10T03:25:46;18.02;;;12.07;;
7444;SDS011;3764;48.126;11.594;2023-02-10T03:28:13;19.25;;;11.63;;
7444;SDS011;3764;48.126;11.594;2023-02-10T03:30:41;17.95;;;11.52;;
7444;SDS011;3764;48.126;11.594;2023-02-10T03:33:11;20.48;;;12.77;;
7444;SDS011;3764;48.126;11.594;2023-02-10T03:35:39;19.35;;;10.10;;
7444;SDS011;3764;48.126;11.594;2023-02-10T03:38:07;19.63;;;11.75;;
7444;SDS011;3764;48.126;11.594;2023-02-10T03:40:34;19.55;;;11.98;;
7444;SDS011;3764;48.126;11.594;2023-02-10T03:43:02;16.85;;;11.18;;
7444;SDS011;3764;48.126;11.594;2023-02-10T03:45:29;23.10;;;12.27;;
7444;SDS011;3764;48.126;11.594;2023-02-10T03:47:56;18.85;;;11.38;;
7444;SDS011;3764;48.126;11.594;2023-02-10T03:50:24;20.52;;;13.20;;
7444;SDS011;3764;48.126;11.594;2023-02-10T03:52:51;24.23;;;11.90;;
7444;SDS011;3764;48.126;11.594;2023-02-10T03:55:19;17.88;;;12.02;;
7444;SDS011;3764;48.126;11.594;2023-02-10T03:57:47;16.67;;;10.20;;
7444;SDS011;3764;48.126;11.594;2023-02-10T04:00:14;18.40;;;11.65;;
7444;SDS011;3764;48.126;11.594;2023-02-10T04:02:42;20.58;;;10.43;;
7444;SDS011;3764;48.126;11.594;2023-02-10T04:05:09;17.88;;;12.55;;
7444;SDS011;3764;48.126;11.594;2023-02-10T04:07:36;16.98;;;11.05;;
7444;SDS011;3764;48.126;11.594;2023-02-10T04:10:04;19.92;;;11.10;;
7444;SDS011;3764;48.126;11.594;2023-02-10T04:12:33;17.52;;;10.25;;
7444;SDS011;3764;48.126;11.594;2023-02-10T04:15:00;17.92;;;11.07;;
7444;SDS011;3764;48.126;11.594;2023-02-10T04:17:27;19.60;;;11.65;;
7444;SDS011;3764;48.126;11.594;2023-02-10T04:19:54;15.38;;;9.82;;
7444;SDS011;3764;48.126;11.594;2023-02-10T04:22:21;18.85;;;10.55;;
7444;SDS011;3764;48.126;11.594;2023-02-10T04:24:49;17.52;;;10.50;;
7444;SDS011;3764;48.126;11.594;2023-02-10T04:27:16;17.50;;;10.85;;
7444;SDS011;3764;48.126;11.594;2023-02-10T04:29:44;16.17;;;10.00;;
7444;SDS011;3764;48.126;11.594;2023-02-10T04:32:11;19.60;;;10.55;;
7444;SDS011;3764;48.126;11.594;2023-02-10T04:34:38;22.65;;;9.85;;
7444;SDS011;3764;48.126;11.594;2023-02-10T04:37:05;18.90;;;9.75;;
7444;SDS011;3764;48.126;11.594;2023-02-10T04:39:32;15.98;;;10.65;;
7444;SDS011;3764;48.126;11.594;2023-02-10T04:41:59;16.65;;;9.50;;
7444;SDS011;3764;48.126;11.594;2023-02-10T04:44:27;16.90;;;9.70;;
7444;SDS011;3764;48.126;11.594;2023-02-10T04:46:55;13.43;;;9.00;;
7444;SDS011;3764;48.126;11.594;2023-02-10T04:49:23;12.95;;;8.35;;
7444;SDS011;3764;48.126;11.594;2023-02-10T04:51:50;19.30;;;9.57;;
7444;SDS011;3764;48.126;11.594;2023-02-10T04:54:17;15.38;;;8.82;;
7444;SDS011;3764;48.126;11.594;2023-02-10T04:56:44;17.52;;;10.07;;
7444;SDS011;3764;48.126;11.594;2023-02-10T04:59:11;19.13;;;9.52;;
7444;SDS011;3764;48.126;11.594;2023-02-10T05:01:38;11.00;;;8.10;;
7444;SDS011;3764;48.126;11.594;2023-02-10T05:04:07;14.77;;;9.35;;
7444;SDS011;3764;48.126;11.594;2023-02-10T05:06:34;16.92;;;9.63;;
7444;SDS011;3764;48.126;11.594;2023-02-10T05:09:02;16.90;;;9.93;;
7444;SDS011;3764;48.126;11.594;2023-02-10T05:11:29;14.05;;;9.05;;
7444;SDS011;3764;48.126;11.594;2023-02-10T05:13:56;12.27;;;8.18;;
7444;SDS011;3764;48.126;11.594;2023-02-10T05:16:24;13.88;;;8.20;;
7444;SDS011;3764;48.126;11.594;2023-02-10T05:18:51;13.85;;;8.45;;
7444;SDS011;3764;48.126;11.594;2023-02-10T05:21:19;16.65;;;9.45;;
7444;SDS011;3764;48.126;11.594;2023-02-10T05:23:46;14.68;;;9.20;;
7444;SDS011;3764;48.126;11.594;2023-02-10T05:26:13;13.23;;;8.90;;
7444;SDS011;3764;48.126;11.594;2023-02-10T05:28:40;10.85;;;7.72;;
7444;SDS011;3764;48.126;11.594;2023-02-10T05:31:07;12.23;;;7.82;;
7444;SDS011;3764;48.126;11.594;2023-02-10T05:33:35;12.05;;;8.60;;
7444;SDS011;3764;48.126;11.594;2023-02-10T05:36:02;11.98;;;7.85;;
7444;SDS011;3764;48.126;11.594;2023-02-10T05:38:31;15.05;;;9.93;;
7444;SDS011;3764;48.126;11.594;2023-02-10T05:40:58;14.40;;;9.32;;
7444;SDS011;3764;48.126;11.594;2023-02-10T05:43:25;19.45;;;11.75;;
7444;SDS011;3764;48.126;11.594;2023-02-10T05:45:52;13.02;;;9.20;;
7444;SDS011;3764;48.126;11.594;2023-02-10T05:48:20;15.38;;;10.18;;
7444;SDS011;3764;48.126;11.594;2023-02-10T05:50:49;11.00;;;8.30;;
7444;SDS011;3764;48.126;11.594;2023-02-10T05:53:16;15.20;;;9.57;;
7444;SDS011;3764;48.126;11.594;2023-02-10T05:55:46;11.45;;;8.02;;
7444;SDS011;3764;48.126;11.594;2023-02-10T05:58:13;14.65;;;8.95;;
7444;SDS011;3764;48.126;11.594;2023-02-10T06:00:40;12.80;;;9.07;;
7444;SDS011;3764;48.126;11.594;2023-02-10T06:03:07;10.88;;;7.80;;
7444;SDS011;3764;48.126;11.594;2023-02-10T06:05:35;15.80;;;8.27;;
7444;SDS011;3764;48.126;11.594;2023-02-10T06:08:02;13.20;;;8.77;;
7444;SDS011;3764;48.126;11.594;2023-02-10T06:10:29;11.95;;;7.95;;
7444;SDS011;3764;48.126;11.594;2023-02-10T06:12:57;12.60;;;8.38;;
7444;SDS011;3764;48.126;11.594;2023-02-10T06:15:25;12.90;;;8.90;;
7444;SDS011;3764;48.126;11.594;2023-02-10T06:17:52;15.38;;;8.60;;
7444;SDS011;3764;48.126;11.594;2023-02-10T06:20:19;9.93;;;7.80;;
7444;SDS011;3764;48.126;11.594;2023-02-10T06:22:46;13.13;;;7.63;;
7444;SDS011;3764;48.126;11.594;2023-02-10T06:25:13;13.07;;;8.00;;
7444;SDS011;3764;48.126;11.594;2023-02-10T06:27:40;13.68;;;8.68;;
7444;SDS011;3764;48.126;11.594;2023-02-10T06:30:10;13.70;;;7.40;;
7444;SDS011;3764;48.126;11.594;2023-02-10T06:32:38;11.50;;;7.50;;
7444;SDS011;3764;48.126;11.594;2023-02-10T06:35:05;13.55;;;9.60;;
7444;SDS011;3764;48.126;11.594;2023-02-10T06:37:32;12.25;;;7.80;;
7444;SDS011;3764;48.126;11.594;2023-02-10T06:40:01;13.93;;;8.55;;
7444;SDS011;3764;48.126;11.594;2023-02-10T06:42:28;14.57;;;8.55;;
7444;SDS011;3764;48.126;11.594;2023-02-10T06:44:55;12.75;;;8.20;;
7444;SDS011;3764;48.126;11.594;2023-02-10T06:47:24;12.35;;;7.45;;
7444;SDS011;3764;48.126;11.594;2023-02-10T06:49:51;13.60;;;8.45;;
7444;SDS011;3764;48.126;11.594;2023-02-10T06:52:18;13.77;;;8.95;;
7444;SDS011;3764;48.126;11.594;2023-02-10T06:54:45;15.93;;;9.27;;
7444;SDS011;3764;48.126;11.594;2023-02-10T06:57:13;17.10;;;7.78;;
7444;SDS011;3764;48.126;11.594;2023-02-10T06:59:40;15.00;;;8.90;;
7444;SDS011;3764;48.126;11.594;2023-02-10T07:02:07;14.98;;;9.30;;
7444;SDS011;3764;48.126;11.594;2023-02-10T07:04:36;13.52;;;8.07;;
7444;SDS011;3764;48.126;11.594;2023-02-10T07:07:03;14.40;;;8.40;;
7444;SDS011;3764;48.126;11.594;2023-02-10T07:09:31;15.68;;;8.38;;
7444;SDS011;3764;48.126;11.594;2023-02-10T07:11:58;10.00;;;7.00;;
7444;SDS011;3764;48.126;11.594;2023-02-10T07:14:25;12.02;;;8.10;;
7444;SDS011;3764;48.126;11.594;2023-02-10T07:16:52;20.77;;;8.40;;
7444;SDS011;3764;48.126;11.594;2023-02-10T07:19:19;11.18;;;7.95;;
7444;SDS011;3764;48.126;11.594;2023-02-10T07:21:48;13.25;;;8.52;;
7444;SDS011;3764;48.126;11.594;2023-02-10T07:24:15;15.80;;;8.48;;
7444;SDS011;3764;48.126;11.594;2023-02-10T07:26:42;13.35;;;8.00;;
7444;SDS011;3764;48.126;11.594;2023-02-10T07:29:09;12.82;;;7.75;;
7444;SDS011;3764;48.126;11.594;2023-02-10T07:31:36;12.13;;;8.20;;
7444;SDS011;3764;48.126;11.594;2023-02-10T07:34:03;14.30;;;8.65;;
7444;SDS011;3764;48.126;11.594;2023-02-10T07:36:31;15.18;;;8.45;;
7444;SDS011;3764;48.126;11.594;2023-02-10T07:38:59;15.63;;;8.45;;
7444;SDS011;3764;48.126;11.594;2023-02-10T07:41:26;38.28;;;8.40;;
7444;SDS011;3764;48.126;11.594;2023-02-10T07:43:53;16.08;;;8.43;;
7444;SDS011;3764;48.126;11.594;2023-02-10T07:46:20;10.02;;;7.78;;
7444;SDS011;3764;48.126;11.594;2023-02-10T07:48:47;9.60;;;6.80;;
7444;SDS011;3764;48.126;11.594;2023-02-10T07:51:14;13.27;;;8.25;;
7444;SDS011;3764;48.126;11.594;2023-02-10T07:53:42;12.00;;;8.15;;
7444;SDS011;3764;48.126;11.594;2023-02-10T07:56:10;15.05;;;8.43;;
7444;SDS011;3764;48.126;11.594;2023-02-10T07:58:37;13.90;;;8.55;;
7444;SDS011;3764;48.126;11.594;2023-02-10T08:01:05;14.98;;;7.97;;
7444;SDS011;3764;48.126;11.594;2023-02-10T08:03:36;11.93;;;7.43;;
7444;SDS011;3764;48.126;11.594;2023-02-10T08:06:04;14.70;;;7.63;;
7444;SDS011;3764;48.126;11.594;2023-02-10T08:08:31;13.40;;;8.43;;
7444;SDS011;3764;48.126;11.594;2023-02-10T08:10:58;15.43;;;8.13;;
7444;SDS011;3764;48.126;11.594;2023-02-10T08:13:27;12.32;;;7.50;;
7444;SDS011;3764;48.126;11.594;2023-02-10T08:15:55;14.95;;;7.80;;
7444;SDS011;3764;48.126;11.594;2023-02-10T08:18:22;21.98;;;9.48;;
7444;SDS011;3764;48.126;11.594;2023-02-10T08:20:49;14.23;;;8.35;;
7444;SDS011;3764;48.126;11.594;2023-02-10T08:23:17;13.75;;;8.50;;
7444;SDS011;3764;48.126;11.594;2023-02-10T08:25:44;15.43;;;8.18;;
7444;SDS011;3764;48.126;11.594;2023-02-10T08:28:11;20.38;;;8.10;;
7444;SDS011;3764;48.126;11.594;2023-02-10T08:30:40;18.10;;;10.45;;
7444;SDS011;3764;48.126;11.594;2023-02-10T08:33:07;14.30;;;7.72;;
7444;SDS011;3764;48.126;11.594;2023-02-10T08:35:34;13.52;;;8.20;;
7444;SDS011;3764;48.126;11.594;2023-02-10T08:38:02;15.02;;;8.80;;
7444;SDS011;3764;48.126;11.594;2023-02-10T08:40:30;15.43;;;9.45;;
7444;SDS011;3764;48.126;11.594;2023-02-10T08:42:57;14.60;;;8.20;;
7444;SDS011;3764;48.126;11.594;2023-02-10T08:45:25;15.15;;;8.80;;
7444;SDS011;3764;48.126;11.594;2023-02-10T08:47:54;12.50;;;8.32;;
7444;SDS011;3764;48.126;11.594;2023-02-10T08:50:22;17.38;;;10.27;;
7444;SDS011;3764;48.126;11.594;2023-02-10T08:52:49;18.45;;;9.20;;
7444;SDS011;3764;48.126;11.594;2023-02-10T08:55:16;14.95;;;8.77;;
7444;SDS011;3764;48.126;11.594;2023-02-10T08:57:43;16.85;;;9.25;;
7444;SDS011;3764;48.126;11.594;2023-02-10T09:00:11;15.88;;;10.18;;
7444;SDS011;3764;48.126;11.594;2023-02-10T09:02:38;17.00;;;9.18;;
7444;SDS011;3764;48.126;11.594;2023-02-10T09:05:07;16.40;;;10.43;;
7444;SDS011;3764;48.126;11.594;2023-02-10T09:07:34;17.27;;;9.18;;
7444;SDS011;3764;48.126;11.594;2023-02-10T09:10:01;16.63;;;9.65;;
7444;SDS011;3764;48.126;11.594;2023-02-10T09:12:29;17.33;;;9.82;;
7444;SDS011;3764;48.126;11.594;2023-02-10T09:14:56;19.10;;;9.20;;
7444;SDS011;3764;48.126;11.594;2023-02-10T09:17:23;22.10;;;10.70;;
7444;SDS011;3764;48.126;11.594;2023-02-10T09:19:50;16.05;;;11.02;;
7444;SDS011;3764;48.126;11.594;2023-02-10T09:22:18;18.33;;;10.98;;
7444;SDS011;3764;48.126;11.594;2023-02-10T09:24:46;16.25;;;10.88;;
7444;SDS011;3764;48.126;11.594;2023-02-10T09:27:14;16.05;;;11.10;;
7444;SDS011;3764;48.126;11.594;2023-02-10T09:29:42;20.90;;;11.05;;
7444;SDS011;3764;48.126;11.594;2023-02-10T09:32:09;20.15;;;12.07;;
7444;SDS011;3764;48.126;11.594;2023-02-10T09:34:36;21.20;;;11.25;;
7444;SDS011;3764;48.126;11.594;2023-02-10T09:37:05;24.02;;;12.63;;
7444;SDS011;3764;48.126;11.594;2023-02-10T09:39:35;19.15;;;11.43;;
7444;SDS011;3764;48.126;11.594;2023-02-10T09:42:07;23.63;;;13.15;;
7444;SDS011;3764;48.126;11.594;2023-02-10T09:44:41;25.70;;;14.07;;
7444;SDS011;3764;48.126;11.594;2023-02-10T09:47:16;23.95;;;13.18;;
7444;SDS011;3764;48.126;11.594;2023-02-10T09:50:06;31.55;;;15.20;;
7444;SDS011;3764;48.126;11.594;2023-02-10T09:52:55;31.08;;;14.20;;
7444;SDS011;3764;48.126;11.594;2023-02-10T09:55:31;31.88;;;17.88;;
7444;SDS011;3764;48.126;11.594;2023-02-10T09:58:02;27.98;;;15.52;;
7444;SDS011;3764;48.126;11.594;2023-02-10T10:00:37;27.00;;;14.38;;
7444;SDS011;3764;48.126;11.594;2023-02-10T10:03:10;28.65;;;15.43;;
7444;SDS011;3764;48.126;11.594;2023-02-10T10:05:44;28.15;;;15.65;;
7444;SDS011;3764;48.126;11.594;2023-02-10T10:08:20;29.40;;;16.92;;
7444;SDS011;3764;48.126;11.594;2023-02-10T10:10:52;26.73;;;16.73;;
7444;SDS011;3764;48.126;11.594;2023-02-10T10:13:24;31.27;;;16.60;;
7444;SDS011;3764;48.126;11.594;2023-02-10T10:15:56;29.75;;;17.27;;
7444;SDS011;3764;48.126;11.594;2023-02-10T10:18:37;31.17;;;16.83;;
7444;SDS011;3764;48.126;11.594;2023-02-10T10:21:14;34.97;;;18.20;;
7444;SDS011;3764;48.126;11.594;2023-02-10T10:23:51;31.15;;;17.27;;
7444;SDS011;3764;48.126;11.594;2023-02-10T10:29:23;32.47;;;18.08;;
7444;SDS011;3764;48.126;11.594;2023-02-10T10:32:01;30.05;;;18.30;;
7444;SDS011;3764;48.126;11.594;2023-02-10T10:34:38;32.60;;;17.02;;
7444;SDS011;3764;48.126;11.594;2023-02-10T10:37:11;26.10;;;16.05;;
7444;SDS011;3764;48.126;11.594;2023-02-10T10:39:42;29.48;;;17.33;;
7444;SDS011;3764;48.126;11.594;2023-02-10T10:42:15;32.20;;;17.55;;
7444;SDS011;3764;48.126;11.594;2023-02-10T10:44:47;31.10;;;17.05;;
7444;SDS011;3764;48.126;11.594;2023-02-10T10:47:17;32.95;;;17.83;;
7444;SDS011;3764;48.126;11.594;2023-02-10T10:49:47;34.85;;;20.23;;
7444;SDS011;3764;48.126;11.594;2023-02-10T10:52:19;33.97;;;17.63;;
7444;SDS011;3764;48.126;11.594;2023-02-10T10:54:54;31.70;;;17.85;;
7444;SDS011;3764;48.126;11.594;2023-02-10T10:57:23;33.97;;;18.23;;
7444;SDS011;3764;48.126;11.594;2023-02-10T10:59:52;32.58;;;17.67;;
7444;SDS011;3764;48.126;11.594;2023-02-10T11:02:22;34.00;;;18.38;;
7444;SDS011;3764;48.126;11.594;2023-02-10T11:04:59;30.00;;;16.88;;
7444;SDS011;3764;48.126;11.594;2023-02-10T11:07:27;30.02;;;18.25;;
7444;SDS011;3764;48.126;11.594;2023-02-10T11:09:57;35.22;;;17.10;;
7444;SDS011;3764;48.126;11.594;2023-02-10T11:12:29;29.75;;;16.73;;
7444;SDS011;3764;48.126;11.594;2023-02-10T11:14:59;30.35;;;18.23;;
7444;SDS011;3764;48.126;11.594;2023-02-10T11:17:30;30.67;;;18.70;;
7444;SDS011;3764;48.126;11.594;2023-02-10T11:20:03;28.88;;;15.73;;
7444;SDS011;3764;48.126;11.594;2023-02-10T11:22:31;30.52;;;17.83;;
7444;SDS011;3764;48.126;11.594;2023-02-10T11:24:59;33.45;;;19.00;;
7444;SDS011;3764;48.126;11.594;2023-02-10T11:27:28;32.20;;;17.85;;
7444;SDS011;3764;48.126;11.594;2023-02-10T11:29:57;33.42;;;17.70;;
7444;SDS011;3764;48.126;11.594;2023-02-10T11:32:25;27.48;;;17.20;;
7444;SDS011;3764;48.126;11.594;2023-02-10T11:34:55;24.60;;;15.73;;
7444;SDS011;3764;48.126;11.594;2023-02-10T11:37:26;28.27;;;17.33;;
7444;SDS011;3764;48.126;11.594;2023-02-10T11:39:55;33.53;;;18.02;;
7444;SDS011;3764;48.126;11.594;2023-02-10T11:42:25;30.13;;;19.75;;
7444;SDS011;3764;48.126;11.594;2023-02-10T11:44:57;27.40;;;17.13;;
7444;SDS011;3764;48.126;11.594;2023-02-10T11:47:25;30.25;;;18.52;;
7444;SDS011;3764;48.126;11.594;2023-02-10T11:49:54;37.60;;;17.83;;
7444;SDS011;3764;48.126;11.594;2023-02-10T11:52:22;28.10;;;17.17;;
7444;SDS011;3764;48.126;11.594;2023-02-10T11:54:50;32.80;;;20.80;;
7444;SDS011;3764;48.126;11.594;2023-02-10T11:57:21;30.92;;;17.88;;
7444;SDS011;3764;48.126;11.594;2023-02-10T12:00:16;30.80;;;20.27;;
7444;SDS011;3764;48.126;11.594;2023-02-10T12:02:58;28.52;;;18.08;;
7444;SDS011;3764;48.126;11.594;2023-02-10T12:05:42;25.65;;;16.88;;
7444;SDS011;3764;48.126;11.594;2023-02-10T12:08:19;33.65;;;17.98;;
7444;SDS011;3764;48.126;11.594;2023-02-10T12:10:53;32.25;;;18.75;;
7444;SDS011;3764;48.126;11.594;2023-02-10T12:13:26;30.15;;;17.52;;
7444;SDS011;3764;48.126;11.594;2023-02-10T12:16:03;29.67;;;18.05;;
7444;SDS011;3764;48.126;11.594;2023-02-10T12:18:45;26.33;;;16.65;;
7444;SDS011;3764;48.126;11.594;2023-02-10T12:21:23;30.02;;;18.05;;
7444;SDS011;3764;48.126;11.594;2023-02-10T12:24:10;26.83;;;17.05;;
7444;SDS011;3764;48.126;11.594;2023-02-10T12:26:47;26.17;;;17.80;;
7444;SDS011;3764;48.126;11.594;2023-02-10T12:29:21;25.92;;;16.02;;
7444;SDS011;3764;48.126;11.594;2023-02-10T12:32:00;23.13;;;13.77;;
7444;SDS011;3764;48.126;11.594;2023-02-10T12:34:37;28.33;;;16.95;;
7444;SDS011;3764;48.126;11.594;2023-02-10T12:37:16;26.20;;;15.40;;
7444;SDS011;3764;48.126;11.594;2023-02-10T12:39:55;25.45;;;15.88;;
7444;SDS011;3764;48.126;11.594;2023-02-10T12:42:40;24.40;;;15.70;;
7444;SDS011;3764;48.126;11.594;2023-02-10T12:45:17;21.90;;;14.93;;
7444;SDS011;3764;48.126;11.594;2023-02-10T12:47:54;23.55;;;14.80;;
7444;SDS011;3764;48.126;11.594;2023-02-10T12:50:40;25.00;;;15.70;;
7444;SDS011;3764;48.126;11.594;2023-02-10T12:53:24;26.35;;;16.17;;
7444;SDS011;3764;48.126;11.594;2023-02-10T12:55:55;25.55;;;17.67;;
7444;SDS011;3764;48.126;11.594;2023-02-10T12:58:27;25.83;;;15.88;;
7444;SDS011;3764;48.126;11.594;2023-02-10T13:01:02;25.38;;;15.63;;
7444;SDS011;3764;48.126;11.594;2023-02-10T13:03:37;25.85;;;15.88;;
7444;SDS011;3764;48.126;11.594;2023-02-10T13:06:18;22.38;;;15.10;;
7444;SDS011;3764;48.126;11.594;2023-02-10T13:08:53;23.45;;;14.70;;
7444;SDS011;3764;48.126;11.594;2023-02-10T13:11:27;24.75;;;17.17;;
7444;SDS011;3764;48.126;11.594;2023-02-10T13:14:02;21.73;;;15.63;;
7444;SDS011;3764;48.126;11.594;2023-02-10T13:16:34;24.77;;;15.07;;
7444;SDS011;3764;48.126;11.594;2023-02-10T13:19:05;22.95;;;15.25;;
7444;SDS011;3764;48.126;11.594;2023-02-10T13:21:43;23.88;;;15.35;;
7444;SDS011;3764;48.126;11.594;2023-02-10T13:24:17;24.83;;;16.25;;
7444;SDS011;3764;48.126;11.594;2023-02-10T13:26:52;23.35;;;14.73;;
7444;SDS011;3764;48.126;11.594;2023-02-10T13:29:29;25.67;;;15.00;;
7444;SDS011;3764;48.126;11.594;2023-02-10T13:32:11;23.15;;;13.68;;
7444;SDS011;3764;48.126;11.594;2023-02-10T13:34:50;27.60;;;15.60;;
7444;SDS011;3764;48.126;11.594;2023-02-10T13:37:21;23.35;;;14.95;;
7444;SDS011;3764;48.126;11.594;2023-02-10T13:39:57;19.80;;;13.90;;
7444;SDS011;3764;48.126;11.594;2023-02-10T13:42:28;23.05;;;13.93;;
7444;SDS011;3764;48.126;11.594;2023-02-10T13:44:57;24.33;;;14.77;;
7444;SDS011;3764;48.126;11.594;2023-02-10T13:47:31;22.13;;;14.55;;
7444;SDS011;3764;48.126;11.594;2023-02-10T13:50:06;16.30;;;12.18;;
7444;SDS011;3764;48.126;11.594;2023-02-10T13:52:49;23.08;;;14.27;;
7444;SDS011;3764;48.126;11.594;2023-02-10T13:55:36;26.10;;;15.85;;
7444;SDS011;3764;48.126;11.594;2023-02-10T13:58:17;23.20;;;14.40;;
7444;SDS011;3764;48.126;11.594;2023-02-10T14:00:52;21.13;;;15.05;;
7444;SDS011;3764;48.126;11.594;2023-02-10T14:03:21;21.77;;;14.15;;
7444;SDS011;3764;48.126;11.594;2023-02-10T14:05:52;25.10;;;14.85;;
7444;SDS011;3764;48.126;11.594;2023-02-10T14:08:32;20.65;;;13.52;;
7444;SDS011;3764;48.126;11.594;2023-02-10T14:11:02;19.25;;;13.23;;
7444;SDS011;3764;48.126;11.594;2023-02-10T14:13:31;22.40;;;15.07;;
7444;SDS011;3764;48.126;11.594;2023-02-10T14:16:01;21.30;;;14.48;;
7444;SDS011;3764;48.126;11.594;2023-02-10T14:18:30;20.75;;;13.43;;
7444;SDS011;3764;48.126;11.594;2023-02-10T14:21:01;20.10;;;12.13;;
7444;SDS011;3764;48.126;11.594;2023-02-10T14:23:30;22.17;;;14.90;;
7444;SDS011;3764;48.126;11.594;2023-02-10T14:25:59;21.50;;;13.52;;
7444;SDS011;3764;48.126;11.594;2023-02-10T14:28:30;19.15;;;12.75;;
7444;SDS011;3764;48.126;11.594;2023-02-10T14:31:00;22.38;;;14.02;;
7444;SDS011;3764;48.126;11.594;2023-02-10T14:33:31;22.77;;;14.13;;
7444;SDS011;3764;48.126;11.594;2023-02-10T14:36:02;19.50;;;13.63;;
7444;SDS011;3764;48.126;11.594;2023-02-10T14:38:31;27.00;;;13.75;;
7444;SDS011;3764;48.126;11.594;2023-02-10T14:41:00;25.88;;;14.43;;
7444;SDS011;3764;48.126;11.594;2023-02-10T14:43:29;20.25;;;13.93;;
7444;SDS011;3764;48.126;11.594;2023-02-10T14:45:58;22.27;;;13.77;;
7444;SDS011;3764;48.126;11.594;2023-02-10T14:48:27;22.65;;;12.27;;
7444;SDS011;3764;48.126;11.594;2023-02-10T14:50:58;23.00;;;14.35;;
7444;SDS011;3764;48.126;11.594;2023-02-10T14:53:28;25.63;;;14.13;;
7444;SDS011;3764;48.126;11.594;2023-02-10T14:55:56;23.58;;;13.75;;
7444;SDS011;3764;48.126;11.594;2023-02-10T14:58:24;21.77;;;14.48;;
7444;SDS011;3764;48.126;11.594;2023-02-10T15:00:53;21.67;;;14.38;;
7444;SDS011;3764;48.126;11.594;2023-02-10T15:03:23;20.60;;;15.00;;